Hlavní strana
METAR-TAF:

METAR-TAF

Letiště :

San Antonio del Táchira, Venezuela

zeměpisná šířka: 07-51N, zeměpisná délka: 072-27W, výška: 377 m

METAR: chybějící

Čas: 18:42 (22:42 UTC)

Předpověď počasí

Zpráva byla vytvořena před 12 hodinami a 42 minutami, v 10:00 UTC
Předpověď platná od 07 v 12 UTC do 08 v 12 UTC
Severovýchodní vítr 6 kt
Viditelnost: 9000 m
Oblačno až skoro zataženo ve výšce 1000 ft
slabé mrholení
Dočasný
od 07 v 12 UTC do 07 v 16 UTC
Východojihovýchodní vítr 6 kt
Viditelnost 10 km a více
Oblačno až skoro zataženo ve výšce 1000 ft

TAF: SVSA 071000Z 0712/0812 05006KT 9000 -DZ BKN010 TX31/19Z TN24/08Z TEMPO 0712/0716 11006KT 9999 BKN010

Stav a předpovědi počasí z více než 4 000 letišť (zprávy METAR a TAF).

Červené a žluté tečky na mapě představují dostupné meteorologické stanice.

Když kurzor umístíte na tečku, zobrazí se název stanice.

Pak kliknutím zobrazíte stav a předpověď počasí.

Chcete-li změnit mapu, kliknutím na zelené tlačítko se znaménkem +mapu přiblížíte, kliknutím na zelené tlačítko se znaménkem – mapu oddálíte a kliknutím na zelené šipky přejdete na sousední mapy.


METAR-TAF: